ADDS METAR Data INFO
IDs: Format: Raw Decoded Include TAF

Data at: 0756 UTC 23 Jul 2018

KSNC 230735Z AUTO 14007KT 3SM BR OVC002 23/23 A3011 RMK AO2
KSNC 230715Z AUTO 13007KT 3SM BR OVC002 23/23 A3011 RMK AO2
KSNC 230655Z AUTO 13007KT 100V160 3SM BR OVC002 23/23 A3011 RMK AO2
KSNC 230635Z AUTO 14008KT 3SM BR OVC002 23/23 A3011 RMK AO2
KSNC 230615Z AUTO 14006G12KT 3SM BR OVC002 23/23 A3011 RMK AO2
KSNC 230555Z AUTO 15007G12KT 3SM BR OVC002 23/23 A3012 RMK AO2
KSNC 230535Z AUTO 14007KT 2 1/2SM BR OVC001 23/23 A3012 RMK AO2
KSNC 230515Z AUTO 14007G12KT 2SM BR OVC001 23/23 A3012 RMK AO2
KSNC 230455Z AUTO 14008KT 1 1/2SM BR OVC001 23/23 A3012 RMK AO2
KSNC 230435Z AUTO 13008KT 1 1/2SM BR OVC001 23/23 A3012 RMK AO2
KSNC 230415Z AUTO 14007KT 1SM BR OVC001 23/23 A3012 RMK AO2
KSNC 230355Z AUTO 13007KT 1SM BR OVC001 23/23 A3011 RMK AO2
KSNC 230335Z AUTO 13008KT 2 1/2SM BR OVC001 23/23 A3011 RMK AO2
KSNC 230315Z AUTO 14010G15KT 1SM BR OVC001 23/23 A3011 RMK AO2
KSNC 230255Z AUTO 14008KT 1 1/2SM BR OVC001 23/23 A3010 RMK AO2
KSNC 230235Z AUTO 12007KT 1 3/4SM BR OVC001 23/23 A3010 RMK AO2
KSNC 230215Z AUTO 6/12500006G13KT 5SM -DZ BKN001 OVC005 23/23 A3011 RMK AO2
KSNC 230155Z AUTO 13009KT 110V170 1 1/2SM RA OVC001 23/23 A3010 RMK AO2
KSNC 230135Z AUTO 13005G12KT 3SM BR OVC001 22/22 A3010 RMK AO2
KSNC 230115Z AUTO 14008G14KT 1SM -RA OVC001 22/22 A3010 RMK AO2
KSNC 230055Z AUTO 13008G13KT 1SM BR OVC001 22/22 A3009 RMK AO2
KSNC 230035Z AUTO 13007G15KT 5SM BR OVC001 22/22 A3009 RMK AO2
KSNC 230015Z AUTO 13007KT 2 1/2SM BR OVC001 22/22 A3008 RMK AO2
KSNC 222355Z AUTO 13006G11KT 2 1/2SM BR OVC001 22/22 A3008 RMK AO2
KSNC 222335Z AUTO 13008KT 3SM BR OVC001 22/22 A3008 RMK AO2
KSNC 222315Z AUTO 14007G13KT 110V170 1 1/4SM BR OVC001 22/22 A3008 RMK AO2
KSNC 222255Z AUTO 13007KT 1 1/2SM BR OVC001 22/22 A3007 RMK AO2
KSNC 222235Z AUTO VRB05KT 3SM BR OVC001 22/22 A3007 RMK AO2
KSNC 222215Z AUTO 13006KT 9SM OVC003 22/22 A3008 RMK AO2
KSNC 222155Z AUTO VRB05G12KT 1/2SM RA OVC002 22/21 A3008 RMK AO2
KSNC 222135Z AUTO 12007KT 5SM -DZ FEW008 BKN012 OVC028 23/21 A3008 RMK AO2
KSNC 222115Z AUTO 13009KT 9SM BKN011 BKN017 OVC030 25/21 A3008 RMK AO2
KSNC 222055Z AUTO 12007KT 8SM BKN010 BKN042 BKN050 25/22 A3007 RMK AO2
KSNC 222035Z AUTO 14007KT 9SM BKN011 BKN020 BKN095 25/22 A3006 RMK AO2
KSNC 222015Z AUTO 12008KT 10SM SCT012 BKN016 BKN023 26/22 A3005 RMK AO2
KSNC 221955Z AUTO 13006G13KT 10SM BKN014 BKN030 OVC070 26/22 A3005 RMK AO2
KSNC 221935Z AUTO 14009G15KT 100V170 10SM SCT014 BKN035 BKN046 26/22 A3005 RMK AO2
KSNC 221915Z AUTO 17007G14KT 10SM BKN015 BKN034 BKN050 26/22 A3005 RMK AO2
KSNC 221855Z AUTO 16013G18KT 10SM BKN017 BKN032 OVC050 27/22 A3005 RMK AO2
KSNC 221835Z AUTO 17013KT 10SM SCT017 SCT032 BKN045 28/22 A3005 RMK AO2
KSNC 221815Z AUTO 15008G14KT 10SM FEW017 BKN031 BKN055 26/22 A3005 RMK AO2
KSNC 221755Z AUTO 16010G17KT 9SM SCT017 BKN029 BKN060 27/21 A3005 RMK AO2
KSNC 221735Z AUTO 15008G15KT 9SM SCT014 BKN028 BKN034 27/22 A3005 RMK AO2
KSNC 221715Z AUTO 13009G14KT 8SM BKN011 BKN027 BKN035 27/22 A3005 RMK AO2
KSNC 221655Z AUTO 16014KT 8SM OVC011 26/22 A3005 RMK AO2
KSNC 221635Z AUTO 17012KT 8SM OVC010 26/22 A3004 RMK AO2
KSNC 221615Z AUTO 15009G15KT 7SM OVC008 25/22 A3004 RMK AO2
KSNC 221555Z AUTO 15011KT 6SM HZ OVC006 25/22 A3003 RMK AO2
KSNC 221535Z AUTO 15011KT 5SM BR OVC006 24/22 A3003 RMK AO2
KSNC 221515Z AUTO 15011KT 5SM BR OVC005 25/23 A3003 RMK AO2
KSNC 221455Z AUTO 15009G17KT 5SM BR OVC004 24/23 A3002 RMK AO2
KSNC 221435Z AUTO 13009KT 4SM BR OVC003 23/22 A3001 RMK AO2
KSNC 221415Z AUTO 13006G14KT 2 1/2SM BR OVC002 22/22 A3001 RMK AO2
KSNC 221355Z AUTO 13008G14KT 3SM BR OVC002 22/21 A3000 RMK AO2
KSNC 221335Z AUTO 13010KT 100V160 3SM BR OVC003 22/21 A2999 RMK AO2
KSNC 221315Z AUTO 13008G14KT 4SM BR OVC004 22/21 A2999 RMK AO2
KSNC 221255Z AUTO 14008G13KT 4SM BR OVC005 22/21 A2998 RMK AO2
KSNC 221235Z AUTO 14009G14KT 5SM BR BKN006 BKN009 OVC014 22/21 A2998 RMK AO2
KSNC 221215Z AUTO 13007G12KT 8SM FEW007 SCT014 BKN023 22/21 A2997 RMK AO2
KSNC 221155Z AUTO 13010G16KT 100V160 4SM BR SCT003 BKN007 OVC023 22/22 A2997 RMK AO2
KSNC 221135Z AUTO 14008G15KT 3SM BR OVC003 22/22 A2995 RMK AO2
KSNC 221115Z AUTO 15009G16KT 2SM BR OVC002 22/22 A2995 RMK AO2
KSNC 221055Z AUTO 13010KT 1 1/4SM -RA OVC003 22/22 A2994 RMK AO2 VIS 3/4V5
KSNC 221035Z AUTO 14012G23KT 2SM RA OVC002 22/22 A2993 RMK AO2
KSNC 221015Z AUTO 11007G21KT 1 1/4SM +RA OVC002 22/22 A2991 RMK AO2
KSNC 220955Z AUTO 11010G17KT 080V140 1 1/4SM RA OVC002 21/21 A2992 RMK AO2
KSNC 220935Z AUTO VRB06G13KT 1 1/4SM +RA OVC002 21/21 A2993 RMK AO2
KSNC 220915Z AUTO 10009G16KT 070V140 3SM RA OVC003 21/21 A2993 RMK AO2
KSNC 220855Z AUTO 11007G16KT 060V130 8SM -RA BKN002 OVC005 21/21 A2994 RMK AO2
KSNC 220835Z AUTO 11009G14KT 070V130 2SM -RA OVC001 20/20 A2995 RMK AO2
KSNC 220815Z AUTO 07007G13KT 1 1/4SM -RA OVC001 20/20 A2995 RMK AO2
KSNC 220755Z AUTO VRB06KT 1/4SM -RA OVC001 20/20 A2996 RMK AO2
KSNC 220735Z AUTO 08007G14KT 060V130 1/2SM -DZ OVC001 19/19 A2997 RMK AO2
KSNC 220715Z AUTO 09008G14KT 1 1/2SM -RA OVC001 19/19 A2997 RMK AO2
KSNC 220655Z AUTO 09007G14KT 060V140 2SM -RA OVC001 19/19 A2998 RMK AO2
KSNC 220635Z AUTO 09008G14KT 2 1/2SM -RA OVC003 19/19 A2999 RMK AO2
KSNC 220615Z AUTO VRB06G15KT 4SM -RA OVC003 19/19 A3000 RMK AO2
KSNC 220555Z AUTO VRB08KT 9SM 19/18 A3000 RMK AO2
KSNC 220535Z AUTO VRB06G12KT 060V130 10SM 19/18 A3000 RMK AO2
KSNC 220515Z AUTO 09008G17KT 060V120 10SM OVC005 19/18 A3001 RMK AO2
KSNC 220455Z AUTO 08007G13KT 10SM OVC006 19/18 A3000 RMK AO2
KSNC 220435Z AUTO 07007KT 040V100 10SM OVC007 19/18 A3001 RMK AO2
KSNC 220415Z AUTO 07007KT 10SM OVC010 18/17 A3001 RMK AO2
KSNC 220355Z AUTO VRB05KT 9SM FEW001 OVC011 18/17 A3002 RMK AO2
KSNC 220335Z AUTO 08007G12KT 050V110 3SM -DZ FEW001 BKN014 OVC022 18/16 A3003 RMK AO2
KSNC 220315Z AUTO 09011G16KT 9SM FEW015 BKN022 OVC026 20/15 A3003 RMK AO2
KSNC 220255Z AUTO 09007G13KT 10SM FEW016 BKN024 OVC028 20/14 A3004 RMK AO2
KSNC 220235Z AUTO VRB05G11KT 10SM 20/14 A3005 RMK AO2
KSNC 220215Z AUTO 07007KT 10SM BKN024 BKN029 OVC049 20/14 A3005 RMK AO2
KSNC 220155Z AUTO 08009KT 10SM SCT027 BKN035 OVC049 20/14 A3005 RMK AO2
KSNC 220135Z AUTO 07009KT 10SM BKN028 OVC036 20/14 A3006 RMK AO2
KSNC 220115Z AUTO VRB05G14KT 10SM BKN029 BKN035 OVC049 20/14 A3006 RMK AO2
KSNC 220055Z AUTO 09007KT 10SM BKN030 BKN036 20/15 A3006 RMK AO2
KSNC 220035Z AUTO 09008G14KT 10SM SCT035 BKN046 20/15 A3006 RMK AO2
KSNC 220015Z AUTO 09008G13KT 050V120 10SM SCT036 BKN045 20/15 A3007 RMK AO2
KSNC 212355Z AUTO 10005KT 10SM FEW038 20/16 A3007 RMK AO2
KSNC 212335Z AUTO 08006KT 10SM SCT038 SCT046 20/16 A3007 RMK AO2
KSNC 212315Z AUTO 11005G12KT 10SM SCT047 21/16 A3007 RMK AO2
KSNC 212255Z AUTO 11003KT 10SM SCT049 SCT055 21/16 A3007 RMK AO2
KSNC 212235Z AUTO VRB05KT 10SM SCT047 21/16 A3007 RMK AO2
KSNC 212215Z AUTO 11005KT 10SM SCT049 22/16 A3007 RMK AO2
KSNC 212155Z AUTO 12005KT 10SM CLR 22/16 A3007 RMK AO2
KSNC 212135Z AUTO VRB06KT 10SM CLR 23/15 A3008 RMK AO2
KSNC 212115Z AUTO 12005KT 10SM CLR 23/15 A3008 RMK AO2
KSNC 212055Z AUTO 13008G13KT 10SM CLR 24/14 A3008 RMK AO2
KSNC 212035Z AUTO VRB06KT 10SM CLR 24/15 A3008 RMK AO2
KSNC 212015Z AUTO 13007KT 10SM CLR 23/15 A3009 RMK AO2